createdAt,value
2019-05-22T00:01:34.721Z,100.00
2019-05-22T00:04:34.525Z,100.00
2019-05-22T00:07:09.457Z,100.00
2019-05-22T00:09:42.543Z,100.00
2019-05-22T00:12:19.110Z,100.00
2019-05-22T00:14:52.874Z,100.00
2019-05-22T00:17:32.413Z,100.00
2019-05-22T00:20:06.723Z,100.00
2019-05-22T00:22:41.582Z,100.00
2019-05-22T00:25:21.106Z,100.00
2019-05-22T00:27:54.165Z,100.00
2019-05-22T00:30:27.446Z,100.00
2019-05-22T00:33:02.327Z,100.00
2019-05-22T00:35:34.610Z,100.00
2019-05-22T00:38:07.502Z,100.00
2019-05-22T00:40:47.296Z,100.00
2019-05-22T00:43:18.736Z,100.00
2019-05-22T00:45:52.408Z,100.00
2019-05-22T00:48:25.264Z,100.00
2019-05-22T00:51:18.196Z,100.00
2019-05-22T00:54:09.772Z,100.00
2019-05-22T00:56:59.328Z,100.00
2019-05-22T00:59:33.809Z,100.00
2019-05-22T01:02:09.719Z,100.00
2019-05-22T01:04:42.639Z,100.00
2019-05-22T01:07:18.040Z,100.00
2019-05-22T01:09:55.855Z,100.00
2019-05-22T01:12:29.724Z,100.00
2019-05-22T01:15:08.312Z,100.00
2019-05-22T01:17:41.737Z,100.00
2019-05-22T01:20:16.683Z,100.00
2019-05-22T01:22:51.687Z,100.00
2019-05-22T01:25:24.337Z,100.00
2019-05-22T01:27:58.267Z,100.00
2019-05-22T01:30:43.601Z,100.00
2019-05-22T01:33:21.221Z,100.00
2019-05-22T01:36:11.190Z,100.00
2019-05-22T01:38:43.481Z,100.00
2019-05-22T01:41:21.151Z,100.00
2019-05-22T01:43:54.792Z,100.00
2019-05-22T01:46:29.814Z,100.00
2019-05-22T01:49:06.386Z,100.00
2019-05-22T01:51:38.871Z,100.00
2019-05-22T01:54:11.751Z,100.00
2019-05-22T01:56:43.853Z,100.00
2019-05-22T01:59:16.350Z,100.00
2019-05-22T02:01:48.993Z,100.00
2019-05-22T02:04:22.482Z,100.00
2019-05-22T02:06:55.591Z,100.00
2019-05-22T02:09:35.557Z,100.00
2019-05-22T02:12:32.299Z,100.00
2019-05-22T02:15:05.208Z,100.00
2019-05-22T02:17:37.476Z,100.00
2019-05-22T02:20:11.397Z,100.00
2019-05-22T02:22:44.409Z,100.00
2019-05-22T02:25:17.654Z,100.00
2019-05-22T02:27:51.116Z,100.00
2019-05-22T02:30:27.626Z,100.00
2019-05-22T02:33:01.685Z,100.00
2019-05-22T02:35:34.631Z,100.00
2019-05-22T02:38:07.456Z,100.00
2019-05-22T02:40:42.022Z,100.00
2019-05-22T02:43:15.935Z,100.00
2019-05-22T02:45:47.895Z,100.00
2019-05-22T02:48:21.095Z,100.00
2019-05-22T02:50:53.242Z,100.00
2019-05-22T02:53:25.793Z,100.00
2019-05-22T02:55:57.753Z,100.00
2019-05-22T02:58:31.532Z,100.00
2019-05-22T03:01:06.363Z,100.00
2019-05-22T03:03:38.979Z,100.00
2019-05-22T03:06:14.007Z,100.00
2019-05-22T03:09:18.666Z,100.00
2019-05-22T03:12:06.798Z,100.00
2019-05-22T03:14:40.375Z,100.00
2019-05-22T03:17:31.530Z,100.00
2019-05-22T03:20:14.085Z,100.00
2019-05-22T03:22:59.737Z,100.00
2019-05-22T03:25:33.611Z,100.00
2019-05-22T03:28:07.431Z,100.00
2019-05-22T03:30:44.217Z,99.56
2019-05-22T03:33:17.859Z,98.67
2019-05-22T03:35:55.447Z,98.45
2019-05-22T03:38:27.788Z,98.15
2019-05-22T03:41:00.326Z,97.49
2019-05-22T03:43:35.552Z,96.88
2019-05-22T03:46:38.236Z,96.03
2019-05-22T03:49:28.907Z,95.02
2019-05-22T03:51:52.720Z,94.11
2019-05-22T03:54:26.701Z,93.33
2019-05-22T03:56:59.260Z,92.90
2019-05-22T03:59:32.017Z,92.00
2019-05-22T04:02:06.257Z,91.35
2019-05-22T04:04:41.270Z,90.59
2019-05-22T04:07:16.816Z,89.45
2019-05-22T04:09:52.045Z,88.88
2019-05-22T04:12:24.973Z,88.20
2019-05-22T04:14:57.278Z,87.61
2019-05-22T04:17:31.082Z,87.49
2019-05-22T04:20:03.488Z,87.58
2019-05-22T04:22:36.240Z,86.22
2019-05-22T04:25:09.486Z,83.32
2019-05-22T04:27:43.472Z,79.71
2019-05-22T04:30:17.817Z,78.70
2019-05-22T04:32:51.148Z,76.38
2019-05-22T04:35:24.115Z,73.85
2019-05-22T04:37:57.236Z,71.50
2019-05-22T04:40:58.245Z,69.17
2019-05-22T04:43:35.012Z,66.69
2019-05-22T04:46:10.090Z,64.19
2019-05-22T04:48:45.975Z,62.25
2019-05-22T04:51:32.039Z,61.54
2019-05-22T04:54:04.124Z,61.33
2019-05-22T04:56:36.138Z,58.03
2019-05-22T04:59:09.048Z,53.63
2019-05-22T05:01:41.796Z,49.89
2019-05-22T05:04:14.217Z,44.93
2019-05-22T05:06:46.951Z,39.78
2019-05-22T05:09:18.982Z,35.72
2019-05-22T05:11:51.847Z,31.47
2019-05-22T05:14:23.798Z,28.08
2019-05-22T05:16:56.163Z,26.21
2019-05-22T05:19:28.886Z,27.71
2019-05-22T05:22:01.353Z,28.13
2019-05-22T05:24:33.421Z,26.75
2019-05-22T05:27:06.662Z,30.97
2019-05-22T05:29:38.743Z,33.28
2019-05-22T05:32:11.120Z,33.01
2019-05-22T05:35:11.776Z,28.48
2019-05-22T05:37:44.509Z,33.54
2019-05-22T05:40:43.226Z,37.81
2019-05-22T05:43:19.064Z,39.67
2019-05-22T05:45:53.013Z,42.14
2019-05-22T05:48:26.147Z,42.33
2019-05-22T05:51:43.179Z,41.11
2019-05-22T05:54:16.359Z,39.44
2019-05-22T05:56:51.607Z,26.08
2019-05-22T05:59:26.257Z,29.90
2019-05-22T06:02:00.446Z,32.90
2019-05-22T06:04:39.705Z,33.90
2019-05-22T06:07:25.299Z,35.20
2019-05-22T06:10:50.932Z,36.93
2019-05-22T06:13:24.077Z,37.34
2019-05-22T06:17:20.348Z,36.91
2019-05-22T06:19:55.681Z,36.18
2019-05-22T06:22:28.960Z,33.63
2019-05-22T06:25:04.592Z,29.11
2019-05-22T06:27:58.426Z,31.78
2019-05-22T06:30:46.404Z,33.05
2019-05-22T06:33:43.970Z,34.75
2019-05-22T06:36:21.732Z,36.64
2019-05-22T06:39:10.168Z,37.19
2019-05-22T06:41:44.143Z,28.88
2019-05-22T06:44:35.234Z,27.49
2019-05-22T06:47:11.650Z,30.51
2019-05-22T06:49:55.547Z,32.54
2019-05-22T06:52:27.970Z,32.27
2019-05-22T06:55:00.138Z,32.57
2019-05-22T06:57:33.773Z,34.45
2019-05-22T07:00:16.657Z,35.44
2019-05-22T07:02:48.926Z,36.24
2019-05-22T07:05:22.315Z,31.65
2019-05-22T07:07:55.376Z,27.40
2019-05-22T07:10:28.530Z,23.51
2019-05-22T07:13:02.166Z,25.94
2019-05-22T07:15:43.322Z,28.52
2019-05-22T07:18:18.002Z,31.50
2019-05-22T07:20:51.063Z,33.28
2019-05-22T07:23:27.847Z,33.35
2019-05-22T07:26:02.268Z,34.29
2019-05-22T07:28:35.015Z,34.82
2019-05-22T07:31:07.324Z,36.23
2019-05-22T07:33:39.620Z,36.19
2019-05-22T07:36:16.667Z,36.21
2019-05-22T07:38:47.715Z,36.19
2019-05-22T07:41:20.542Z,27.44
2019-05-22T07:43:52.531Z,28.64
2019-05-22T07:46:25.120Z,30.47
2019-05-22T07:48:57.679Z,31.50
2019-05-22T07:51:31.172Z,31.10
2019-05-22T07:54:03.208Z,31.07
2019-05-22T07:56:35.735Z,29.65
2019-05-22T07:59:07.834Z,21.25
2019-05-22T08:01:40.889Z,20.57
2019-05-22T08:04:13.932Z,16.92
2019-05-22T08:06:46.593Z,14.62
2019-05-22T08:09:21.647Z,17.97
2019-05-22T08:11:54.008Z,20.41
2019-05-22T08:14:27.978Z,11.52
2019-05-22T08:17:00.334Z,11.63
2019-05-22T08:19:32.876Z,9.04
2019-05-22T08:22:07.663Z,8.89
2019-05-22T08:24:39.544Z,12.38
2019-05-22T08:27:12.260Z,16.60
2019-05-22T08:29:44.883Z,15.64
2019-05-22T08:32:17.898Z,16.66
2019-05-22T08:34:50.223Z,8.72
2019-05-22T08:37:28.535Z,6.37
2019-05-22T08:40:02.832Z,6.82
2019-05-22T08:42:35.745Z,9.76
2019-05-22T08:45:09.146Z,12.16
2019-05-22T08:47:41.671Z,14.46
2019-05-22T08:50:15.705Z,16.27
2019-05-22T08:52:49.736Z,16.63
2019-05-22T08:55:22.870Z,18.86
2019-05-22T08:57:55.663Z,18.93
2019-05-22T09:00:30.072Z,21.22
2019-05-22T09:03:02.101Z,19.86
2019-05-22T09:05:34.234Z,21.94
2019-05-22T09:08:06.449Z,24.24
2019-05-22T09:10:38.537Z,24.70
2019-05-22T09:13:10.883Z,19.50
2019-05-22T09:15:43.526Z,16.88
2019-05-22T09:18:16.094Z,17.23
2019-05-22T09:20:49.929Z,17.96
2019-05-22T09:23:22.594Z,20.04
2019-05-22T09:25:54.992Z,21.18
2019-05-22T09:28:27.319Z,22.60
2019-05-22T09:30:59.395Z,23.98
2019-05-22T09:33:32.276Z,25.83
2019-05-22T09:36:04.927Z,27.03
2019-05-22T09:38:37.910Z,26.68
2019-05-22T09:41:10.406Z,27.79
2019-05-22T09:43:42.376Z,29.58
2019-05-22T09:46:15.248Z,31.59
2019-05-22T09:48:47.646Z,32.67
2019-05-22T09:51:20.890Z,33.57
2019-05-22T09:53:53.868Z,34.55
2019-05-22T09:56:26.365Z,35.04
2019-05-22T09:58:58.946Z,33.95
2019-05-22T10:01:31.005Z,32.32
2019-05-22T10:04:03.628Z,31.75
2019-05-22T10:06:35.990Z,31.23
2019-05-22T10:09:09.709Z,31.04
2019-05-22T10:11:42.333Z,32.20
2019-05-22T10:14:15.086Z,33.15
2019-05-22T10:16:47.079Z,34.12
2019-05-22T10:19:19.053Z,35.65
2019-05-22T10:21:51.696Z,36.75
2019-05-22T10:24:23.976Z,38.01
2019-05-22T10:26:56.108Z,39.23
2019-05-22T10:29:32.018Z,39.45
2019-05-22T10:32:02.409Z,40.03
2019-05-22T10:34:34.675Z,41.10
2019-05-22T10:37:07.041Z,41.90
2019-05-22T10:39:40.365Z,42.24
2019-05-22T10:42:13.036Z,42.77
2019-05-22T10:44:45.257Z,43.79
2019-05-22T10:47:18.840Z,45.25
2019-05-22T10:49:53.170Z,46.43
2019-05-22T10:52:26.113Z,47.25
2019-05-22T10:54:58.091Z,47.76
2019-05-22T10:57:30.942Z,48.16
2019-05-22T11:00:04.690Z,49.51
2019-05-22T11:02:36.676Z,50.51
2019-05-22T11:05:08.959Z,52.10
2019-05-22T11:07:41.707Z,52.47
2019-05-22T11:10:14.884Z,52.85
2019-05-22T11:12:47.429Z,52.38
2019-05-22T11:15:19.596Z,52.09
2019-05-22T11:17:52.312Z,51.86
2019-05-22T11:20:25.605Z,52.10
2019-05-22T11:22:57.620Z,51.58
2019-05-22T11:25:31.378Z,51.20
2019-05-22T11:28:03.791Z,50.61
2019-05-22T11:30:36.072Z,50.02
2019-05-22T11:33:08.885Z,50.03
2019-05-22T11:35:41.908Z,50.39
2019-05-22T11:38:14.135Z,50.24
2019-05-22T11:40:46.283Z,50.55
2019-05-22T11:43:18.806Z,51.33
2019-05-22T11:45:51.487Z,51.89
2019-05-22T11:48:23.665Z,52.29
2019-05-22T11:50:56.307Z,52.87
2019-05-22T11:53:28.318Z,53.54
2019-05-22T11:56:00.748Z,53.81
2019-05-22T11:58:32.880Z,53.66
2019-05-22T12:01:05.266Z,52.96
2019-05-22T12:03:37.511Z,51.69
2019-05-22T12:06:10.706Z,49.72
2019-05-22T12:08:43.454Z,48.52
2019-05-22T12:11:19.116Z,47.70
2019-05-22T12:13:51.490Z,46.40
2019-05-22T12:16:24.424Z,45.06
2019-05-22T12:18:58.913Z,43.96
2019-05-22T12:21:30.832Z,43.43
2019-05-22T12:24:02.770Z,42.50
2019-05-22T12:26:35.976Z,42.16
2019-05-22T12:29:08.015Z,41.79
2019-05-22T12:31:40.575Z,41.73
2019-05-22T12:34:12.902Z,40.80
2019-05-22T12:36:46.050Z,40.83
2019-05-22T12:39:19.553Z,40.19
2019-05-22T12:41:51.642Z,39.54
2019-05-22T12:44:23.883Z,39.43
2019-05-22T12:46:55.973Z,38.00
2019-05-22T12:49:29.527Z,36.76
2019-05-22T12:52:04.498Z,35.50
2019-05-22T12:54:46.793Z,33.98
2019-05-22T12:57:11.180Z,33.13
2019-05-22T12:59:45.653Z,32.10
2019-05-22T13:02:18.791Z,31.36
2019-05-22T13:04:51.414Z,30.75
2019-05-22T13:07:24.332Z,30.86
2019-05-22T13:09:56.691Z,31.59
2019-05-22T13:12:28.718Z,31.05
2019-05-22T13:15:09.606Z,30.94
2019-05-22T13:17:35.214Z,30.98
2019-05-22T13:20:10.373Z,30.74
2019-05-22T13:22:47.756Z,32.13
2019-05-22T13:25:21.071Z,33.54
2019-05-22T13:27:55.053Z,34.78
2019-05-22T13:30:28.763Z,33.85
2019-05-22T13:33:01.968Z,32.17
2019-05-22T13:35:34.175Z,30.69
2019-05-22T13:38:06.735Z,30.77
2019-05-22T13:40:39.821Z,31.58
2019-05-22T13:43:12.933Z,35.30
2019-05-22T13:45:45.295Z,40.43
2019-05-22T13:48:17.518Z,44.61
2019-05-22T13:50:50.075Z,49.38
2019-05-22T13:53:23.125Z,53.69
2019-05-22T13:55:56.161Z,59.58
2019-05-22T13:58:29.295Z,65.18
2019-05-22T14:01:01.285Z,68.63
2019-05-22T14:03:34.333Z,69.51
2019-05-22T14:06:06.523Z,69.26
2019-05-22T14:08:39.101Z,70.22
2019-05-22T14:11:11.861Z,70.68
2019-05-22T14:13:44.885Z,70.43
2019-05-22T14:16:17.240Z,71.03
2019-05-22T14:18:51.227Z,72.37
2019-05-22T14:21:23.572Z,74.07
2019-05-22T14:23:55.709Z,74.83
2019-05-22T14:26:29.831Z,74.75
2019-05-22T14:29:01.735Z,73.83
2019-05-22T14:31:33.950Z,73.15
2019-05-22T14:34:06.491Z,71.81
2019-05-22T14:36:38.537Z,70.83
2019-05-22T14:39:13.021Z,69.85
2019-05-22T14:41:45.210Z,68.99
2019-05-22T14:44:17.189Z,67.82
2019-05-22T14:46:49.489Z,66.25
2019-05-22T14:49:21.579Z,64.46
2019-05-22T14:51:54.398Z,62.94
2019-05-22T14:54:27.348Z,62.41
2019-05-22T14:56:59.886Z,60.80
2019-05-22T14:59:31.973Z,59.56
2019-05-22T15:02:04.396Z,59.13
2019-05-22T15:04:36.984Z,58.98
2019-05-22T15:07:09.561Z,59.73
2019-05-22T15:09:41.730Z,60.48
2019-05-22T15:12:14.019Z,61.31
2019-05-22T15:14:46.396Z,62.36
2019-05-22T15:17:31.877Z,63.21
2019-05-22T15:19:52.842Z,64.90
2019-05-22T15:22:25.265Z,65.10
2019-05-22T15:24:58.044Z,64.74
2019-05-22T15:27:30.666Z,65.05
2019-05-22T15:30:03.840Z,64.85
2019-05-22T15:32:35.792Z,65.99
2019-05-22T15:35:09.306Z,65.47
2019-05-22T15:37:44.206Z,65.50
2019-05-22T15:40:18.559Z,64.75
2019-05-22T15:42:53.803Z,63.66
2019-05-22T15:45:29.356Z,61.97
2019-05-22T15:48:08.523Z,60.54
2019-05-22T15:50:42.549Z,60.53
2019-05-22T15:53:15.494Z,61.58
2019-05-22T15:55:49.238Z,62.74
2019-05-22T15:58:23.492Z,63.18
2019-05-22T16:00:58.320Z,64.41
2019-05-22T16:03:32.192Z,66.54
2019-05-22T16:06:04.821Z,68.23
2019-05-22T16:08:37.686Z,69.93
2019-05-22T16:11:14.415Z,71.45
2019-05-22T16:13:49.149Z,72.04
2019-05-22T16:16:24.718Z,73.33
2019-05-22T16:19:00.968Z,74.83
2019-05-22T16:21:35.057Z,76.59
2019-05-22T16:24:07.974Z,77.90
2019-05-22T16:26:42.600Z,79.52
2019-05-22T16:29:15.018Z,81.51
2019-05-22T16:31:48.599Z,82.59
2019-05-22T16:34:21.330Z,83.63
2019-05-22T16:36:54.405Z,85.97
2019-05-22T16:39:27.247Z,86.77
2019-05-22T16:41:59.525Z,87.40
2019-05-22T16:44:32.314Z,88.44
2019-05-22T16:47:05.258Z,88.76
2019-05-22T16:49:39.199Z,88.51
2019-05-22T16:52:13.273Z,88.61
2019-05-22T16:54:46.196Z,88.64
2019-05-22T16:57:18.652Z,88.66
2019-05-22T16:59:52.638Z,89.17
2019-05-22T17:02:26.141Z,88.52
2019-05-22T17:05:01.810Z,88.88
2019-05-22T17:07:32.380Z,87.36
2019-05-22T17:10:05.092Z,88.15
2019-05-22T17:12:38.661Z,87.82
2019-05-22T17:15:15.822Z,87.35
2019-05-22T17:17:48.217Z,87.28
2019-05-22T17:20:26.194Z,87.25
2019-05-22T17:22:58.898Z,86.68
2019-05-22T17:25:32.169Z,87.02
2019-05-22T17:28:06.900Z,86.83
2019-05-22T17:30:41.882Z,86.65
2019-05-22T17:33:14.720Z,86.54
2019-05-22T17:35:51.180Z,85.37
2019-05-22T17:38:25.316Z,86.19
2019-05-22T17:40:57.735Z,85.21
2019-05-22T17:43:33.030Z,84.57
2019-05-22T17:46:06.507Z,84.98
2019-05-22T17:48:38.980Z,85.87
2019-05-22T17:51:12.669Z,86.61
2019-05-22T17:53:45.969Z,86.47
2019-05-22T17:56:18.235Z,86.80
2019-05-22T17:58:50.321Z,86.14
2019-05-22T18:01:23.672Z,85.69
2019-05-22T18:03:55.958Z,85.28
2019-05-22T18:06:28.295Z,84.51
2019-05-22T18:09:01.531Z,84.51
2019-05-22T18:11:33.569Z,84.68
2019-05-22T18:14:07.656Z,85.12
2019-05-22T18:16:40.302Z,85.91
2019-05-22T18:19:12.681Z,87.31
2019-05-22T18:21:45.420Z,88.33
2019-05-22T18:24:17.985Z,89.35
2019-05-22T18:26:50.480Z,89.98
2019-05-22T18:29:22.512Z,90.29
2019-05-22T18:31:54.651Z,89.61
2019-05-22T18:34:26.783Z,89.78
2019-05-22T18:36:59.243Z,89.20
2019-05-22T18:39:31.443Z,89.54
2019-05-22T18:42:03.619Z,89.56
2019-05-22T18:44:35.837Z,90.42
2019-05-22T18:47:08.609Z,90.12
2019-05-22T18:49:41.151Z,90.81
2019-05-22T18:52:15.265Z,91.57
2019-05-22T18:54:47.301Z,91.88
2019-05-22T18:57:19.377Z,91.79
2019-05-22T18:59:52.374Z,91.85
2019-05-22T19:02:25.458Z,91.92
2019-05-22T19:04:57.438Z,91.17
2019-05-22T19:07:29.690Z,91.88
2019-05-22T19:10:01.817Z,92.72
2019-05-22T19:12:34.024Z,93.86
2019-05-22T19:15:06.606Z,95.27
2019-05-22T19:17:38.977Z,95.88
2019-05-22T19:20:11.708Z,96.34
2019-05-22T19:22:58.409Z,96.18
2019-05-22T19:25:17.943Z,95.45
2019-05-22T19:27:49.876Z,95.85
2019-05-22T19:30:22.663Z,94.43
2019-05-22T19:32:54.694Z,94.75
2019-05-22T19:35:26.696Z,95.25
2019-05-22T19:37:59.580Z,95.52
2019-05-22T19:40:32.102Z,95.39
2019-05-22T19:43:04.732Z,95.54
2019-05-22T19:45:36.981Z,96.30
2019-05-22T19:48:10.198Z,96.02
2019-05-22T19:50:42.370Z,95.78
2019-05-22T19:53:19.132Z,96.16
2019-05-22T19:55:49.193Z,96.99
2019-05-22T19:58:22.240Z,98.03
2019-05-22T20:00:54.898Z,98.89
2019-05-22T20:03:27.741Z,100.00
2019-05-22T20:06:01.967Z,100.00
2019-05-22T20:08:36.514Z,100.00
2019-05-22T20:11:08.261Z,100.00
2019-05-22T20:13:41.183Z,100.00
2019-05-22T20:16:13.646Z,100.00
2019-05-22T20:18:45.810Z,100.00
2019-05-22T20:21:18.021Z,100.00
2019-05-22T20:23:50.956Z,100.00
2019-05-22T20:26:23.907Z,100.00
2019-05-22T20:28:57.348Z,100.00
2019-05-22T20:31:29.525Z,100.00
2019-05-22T20:34:01.733Z,100.00
2019-05-22T20:36:33.848Z,99.20
2019-05-22T20:39:09.552Z,98.15
2019-05-22T20:41:41.768Z,98.50
2019-05-22T20:44:13.940Z,98.60
2019-05-22T20:46:48.720Z,98.84
2019-05-22T20:49:21.597Z,99.53
2019-05-22T20:51:53.841Z,100.00
2019-05-22T20:54:28.568Z,100.00
2019-05-22T20:57:02.638Z,100.00
2019-05-22T20:59:36.768Z,100.00
2019-05-22T21:02:09.879Z,100.00
2019-05-22T21:04:43.531Z,99.70
2019-05-22T21:07:19.262Z,99.92
2019-05-22T21:09:52.425Z,100.00
2019-05-22T21:12:27.685Z,100.00
2019-05-22T21:15:00.089Z,100.00
2019-05-22T21:17:32.911Z,100.00
2019-05-22T21:20:06.737Z,100.00
2019-05-22T21:22:40.363Z,100.00
2019-05-22T21:25:13.731Z,100.00
2019-05-22T21:27:46.264Z,100.00
2019-05-22T21:30:19.223Z,100.00
2019-05-22T21:32:51.285Z,100.00
2019-05-22T21:35:24.712Z,100.00
2019-05-22T21:37:58.687Z,100.00
2019-05-22T21:40:31.276Z,100.00
2019-05-22T21:43:03.493Z,100.00
2019-05-22T21:45:36.503Z,100.00
2019-05-22T21:48:09.066Z,100.00
2019-05-22T21:50:41.537Z,100.00
2019-05-22T21:53:13.914Z,100.00
2019-05-22T21:55:47.053Z,100.00
2019-05-22T21:58:19.661Z,100.00
2019-05-22T22:01:27.531Z,100.00
2019-05-22T22:04:20.456Z,100.00
2019-05-22T22:06:56.409Z,100.00
2019-05-22T22:09:29.197Z,100.00
2019-05-22T22:12:02.421Z,99.60
2019-05-22T22:14:34.687Z,99.27
2019-05-22T22:17:08.295Z,98.88
2019-05-22T22:19:41.269Z,99.07
2019-05-22T22:22:19.240Z,99.45
2019-05-22T22:24:51.271Z,99.52
2019-05-22T22:27:25.259Z,99.63
2019-05-22T22:29:58.553Z,99.65
2019-05-22T22:32:32.436Z,99.74
2019-05-22T22:35:04.976Z,100.00
2019-05-22T22:37:37.479Z,100.00
2019-05-22T22:40:11.305Z,100.00
2019-05-22T22:42:45.463Z,100.00
2019-05-22T22:45:27.805Z,100.00
2019-05-22T22:48:00.136Z,100.00
2019-05-22T22:50:32.788Z,100.00
2019-05-22T22:53:06.298Z,100.00
2019-05-22T22:55:42.319Z,100.00
2019-05-22T22:58:17.538Z,100.00
2019-05-22T23:00:49.580Z,100.00
2019-05-22T23:03:26.904Z,100.00
2019-05-22T23:05:59.487Z,100.00
2019-05-22T23:08:34.966Z,100.00
2019-05-22T23:11:07.281Z,100.00
2019-05-22T23:13:40.963Z,100.00
2019-05-22T23:16:14.737Z,100.00
2019-05-22T23:19:33.831Z,100.00
2019-05-22T23:22:20.665Z,100.00
2019-05-22T23:24:54.364Z,100.00
2019-05-22T23:27:29.322Z,100.00
2019-05-22T23:30:01.802Z,100.00
2019-05-22T23:32:34.023Z,100.00
2019-05-22T23:35:07.199Z,100.00
2019-05-22T23:37:41.285Z,100.00
2019-05-22T23:40:17.321Z,100.00
2019-05-22T23:42:51.366Z,100.00
2019-05-22T23:45:24.732Z,100.00
2019-05-22T23:48:09.213Z,100.00
2019-05-22T23:50:42.053Z,100.00
2019-05-22T23:53:16.381Z,100.00
2019-05-22T23:55:48.824Z,100.00
2019-05-22T23:58:23.280Z,100.00
